sensor_id;sensor_type;location;lat;lon;timestamp;P1;durP1;ratioP1;P2;durP2;ratioP2
3085;SDS011;52812;48.960;9.108;2023-01-16T00:00:51;4.40;;;1.70;;
3085;SDS011;52812;48.960;9.108;2023-01-16T00:03:17;2.70;;;1.63;;
3085;SDS011;52812;48.960;9.108;2023-01-16T00:05:43;1.60;;;1.50;;
3085;SDS011;52812;48.960;9.108;2023-01-16T00:08:09;1.87;;;1.40;;
3085;SDS011;52812;48.960;9.108;2023-01-16T00:10:34;4.10;;;1.67;;
3085;SDS011;52812;48.960;9.108;2023-01-16T00:13:00;2.37;;;1.80;;
3085;SDS011;52812;48.960;9.108;2023-01-16T00:15:26;1.83;;;1.50;;
3085;SDS011;52812;48.960;9.108;2023-01-16T00:17:51;3.07;;;1.63;;
3085;SDS011;52812;48.960;9.108;2023-01-16T00:20:17;3.63;;;1.80;;
3085;SDS011;52812;48.960;9.108;2023-01-16T00:22:43;1.83;;;1.43;;
3085;SDS011;52812;48.960;9.108;2023-01-16T00:25:09;2.40;;;1.40;;
3085;SDS011;52812;48.960;9.108;2023-01-16T00:27:34;3.80;;;1.87;;
3085;SDS011;52812;48.960;9.108;2023-01-16T00:30:00;2.60;;;1.67;;
3085;SDS011;52812;48.960;9.108;2023-01-16T00:32:26;4.53;;;1.60;;
3085;SDS011;52812;48.960;9.108;2023-01-16T00:34:51;2.53;;;1.40;;
3085;SDS011;52812;48.960;9.108;2023-01-16T00:37:17;2.80;;;1.57;;
3085;SDS011;52812;48.960;9.108;2023-01-16T00:39:42;1.73;;;1.60;;
3085;SDS011;52812;48.960;9.108;2023-01-16T00:42:08;2.50;;;1.80;;
3085;SDS011;52812;48.960;9.108;2023-01-16T00:44:33;2.07;;;1.53;;
3085;SDS011;52812;48.960;9.108;2023-01-16T00:46:59;3.33;;;1.63;;
3085;SDS011;52812;48.960;9.108;2023-01-16T00:49:25;4.50;;;1.50;;
3085;SDS011;52812;48.960;9.108;2023-01-16T00:51:50;2.70;;;1.90;;
3085;SDS011;52812;48.960;9.108;2023-01-16T00:54:16;2.60;;;1.30;;
3085;SDS011;52812;48.960;9.108;2023-01-16T00:56:41;2.10;;;1.50;;
3085;SDS011;52812;48.960;9.108;2023-01-16T00:59:07;2.40;;;1.53;;
3085;SDS011;52812;48.960;9.108;2023-01-16T01:01:34;1.87;;;1.30;;
3085;SDS011;52812;48.960;9.108;2023-01-16T01:06:28;2.90;;;1.60;;
3085;SDS011;52812;48.960;9.108;2023-01-16T01:08:54;3.70;;;1.50;;
3085;SDS011;52812;48.960;9.108;2023-01-16T01:11:20;2.80;;;1.60;;
3085;SDS011;52812;48.960;9.108;2023-01-16T01:13:46;1.73;;;1.40;;
3085;SDS011;52812;48.960;9.108;2023-01-16T01:16:11;1.60;;;1.40;;
3085;SDS011;52812;48.960;9.108;2023-01-16T01:18:38;3.50;;;1.47;;
3085;SDS011;52812;48.960;9.108;2023-01-16T01:21:04;2.80;;;1.17;;
3085;SDS011;52812;48.960;9.108;2023-01-16T01:23:30;2.73;;;1.53;;
3085;SDS011;52812;48.960;9.108;2023-01-16T01:25:55;4.00;;;1.50;;
3085;SDS011;52812;48.960;9.108;2023-01-16T01:28:21;1.90;;;1.30;;
3085;SDS011;52812;48.960;9.108;2023-01-16T01:30:46;2.10;;;1.30;;
3085;SDS011;52812;48.960;9.108;2023-01-16T01:33:12;3.10;;;1.50;;
3085;SDS011;52812;48.960;9.108;2023-01-16T01:35:38;2.90;;;1.40;;
3085;SDS011;52812;48.960;9.108;2023-01-16T01:38:03;2.27;;;1.30;;
3085;SDS011;52812;48.960;9.108;2023-01-16T01:40:29;2.03;;;1.40;;
3085;SDS011;52812;48.960;9.108;2023-01-16T01:42:56;2.40;;;1.40;;
3085;SDS011;52812;48.960;9.108;2023-01-16T01:45:29;2.10;;;1.10;;
3085;SDS011;52812;48.960;9.108;2023-01-16T01:48:15;4.83;;;1.33;;
3085;SDS011;52812;48.960;9.108;2023-01-16T01:50:50;1.20;;;1.10;;
3085;SDS011;52812;48.960;9.108;2023-01-16T01:53:34;1.60;;;1.20;;
3085;SDS011;52812;48.960;9.108;2023-01-16T01:56:08;1.70;;;1.30;;
3085;SDS011;52812;48.960;9.108;2023-01-16T01:58:44;2.40;;;1.40;;
3085;SDS011;52812;48.960;9.108;2023-01-16T02:01:14;2.70;;;1.47;;
3085;SDS011;52812;48.960;9.108;2023-01-16T02:03:46;1.50;;;1.30;;
3085;SDS011;52812;48.960;9.108;2023-01-16T02:06:25;2.60;;;1.40;;
3085;SDS011;52812;48.960;9.108;2023-01-16T02:08:58;2.30;;;1.10;;
3085;SDS011;52812;48.960;9.108;2023-01-16T02:11:33;3.17;;;1.30;;
3085;SDS011;52812;48.960;9.108;2023-01-16T02:14:11;1.10;;;1.00;;
3085;SDS011;52812;48.960;9.108;2023-01-16T02:16:39;1.20;;;1.10;;
3085;SDS011;52812;48.960;9.108;2023-01-16T02:21:59;1.67;;;1.13;;
3085;SDS011;52812;48.960;9.108;2023-01-16T02:27:31;2.53;;;1.20;;
3085;SDS011;52812;48.960;9.108;2023-01-16T02:38:28;4.23;;;1.30;;
3085;SDS011;52812;48.960;9.108;2023-01-16T02:41:02;1.37;;;1.20;;
3085;SDS011;52812;48.960;9.108;2023-01-16T02:43:57;1.40;;;1.23;;
3085;SDS011;52812;48.960;9.108;2023-01-16T02:54:42;1.40;;;1.30;;
3085;SDS011;52812;48.960;9.108;2023-01-16T02:57:17;1.20;;;1.10;;
3085;SDS011;52812;48.960;9.108;2023-01-16T02:59:45;1.40;;;1.20;;
3085;SDS011;52812;48.960;9.108;2023-01-16T03:02:12;3.80;;;1.10;;
3085;SDS011;52812;48.960;9.108;2023-01-16T03:04:43;2.80;;;1.47;;
3085;SDS011;52812;48.960;9.108;2023-01-16T03:07:24;1.30;;;1.20;;
3085;SDS011;52812;48.960;9.108;2023-01-16T03:15:52;2.20;;;1.13;;
3085;SDS011;52812;48.960;9.108;2023-01-16T03:18:36;1.90;;;1.30;;
3085;SDS011;52812;48.960;9.108;2023-01-16T03:21:34;1.30;;;1.10;;
3085;SDS011;52812;48.960;9.108;2023-01-16T03:27:19;1.47;;;1.00;;
3085;SDS011;52812;48.960;9.108;2023-01-16T03:32:50;1.40;;;1.30;;
3085;SDS011;52812;48.960;9.108;2023-01-16T03:35:25;1.70;;;1.10;;
3085;SDS011;52812;48.960;9.108;2023-01-16T03:38:02;1.23;;;1.10;;
3085;SDS011;52812;48.960;9.108;2023-01-16T03:40:32;3.33;;;1.10;;
3085;SDS011;52812;48.960;9.108;2023-01-16T03:43:09;1.77;;;1.20;;
3085;SDS011;52812;48.960;9.108;2023-01-16T03:45:51;2.83;;;1.30;;
3085;SDS011;52812;48.960;9.108;2023-01-16T03:48:27;2.70;;;1.20;;
3085;SDS011;52812;48.960;9.108;2023-01-16T03:51:21;1.50;;;1.30;;
3085;SDS011;52812;48.960;9.108;2023-01-16T03:54:05;2.33;;;1.20;;
3085;SDS011;52812;48.960;9.108;2023-01-16T03:56:37;1.30;;;1.00;;
3085;SDS011;52812;48.960;9.108;2023-01-16T03:59:10;1.30;;;1.20;;
3085;SDS011;52812;48.960;9.108;2023-01-16T04:01:43;1.63;;;1.10;;
3085;SDS011;52812;48.960;9.108;2023-01-16T04:04:29;1.10;;;1.00;;
3085;SDS011;52812;48.960;9.108;2023-01-16T04:06:59;1.93;;;1.17;;
3085;SDS011;52812;48.960;9.108;2023-01-16T04:12:03;1.80;;;1.30;;
3085;SDS011;52812;48.960;9.108;2023-01-16T04:14:30;2.97;;;1.50;;
3085;SDS011;52812;48.960;9.108;2023-01-16T04:16:59;2.13;;;1.23;;
3085;SDS011;52812;48.960;9.108;2023-01-16T04:19:25;3.87;;;1.23;;
3085;SDS011;52812;48.960;9.108;2023-01-16T04:21:53;2.17;;;1.17;;
3085;SDS011;52812;48.960;9.108;2023-01-16T04:24:19;1.87;;;1.10;;
3085;SDS011;52812;48.960;9.108;2023-01-16T04:26:45;1.70;;;1.20;;
3085;SDS011;52812;48.960;9.108;2023-01-16T04:29:10;1.20;;;1.10;;
3085;SDS011;52812;48.960;9.108;2023-01-16T04:31:36;3.20;;;1.40;;
3085;SDS011;52812;48.960;9.108;2023-01-16T04:34:02;1.20;;;1.10;;
3085;SDS011;52812;48.960;9.108;2023-01-16T04:36:28;1.37;;;1.13;;
3085;SDS011;52812;48.960;9.108;2023-01-16T04:38:56;2.40;;;1.20;;
3085;SDS011;52812;48.960;9.108;2023-01-16T04:41:21;1.40;;;1.27;;
3085;SDS011;52812;48.960;9.108;2023-01-16T04:44:03;1.63;;;1.20;;
3085;SDS011;52812;48.960;9.108;2023-01-16T04:46:30;2.13;;;1.37;;
3085;SDS011;52812;48.960;9.108;2023-01-16T04:48:56;2.70;;;1.20;;
3085;SDS011;52812;48.960;9.108;2023-01-16T04:51:22;1.30;;;1.20;;
3085;SDS011;52812;48.960;9.108;2023-01-16T04:53:48;1.87;;;1.40;;
3085;SDS011;52812;48.960;9.108;2023-01-16T04:56:14;2.90;;;1.40;;
3085;SDS011;52812;48.960;9.108;2023-01-16T04:58:39;6.23;;;1.47;;
3085;SDS011;52812;48.960;9.108;2023-01-16T05:01:05;1.87;;;1.47;;
3085;SDS011;52812;48.960;9.108;2023-01-16T05:03:31;2.30;;;1.60;;
3085;SDS011;52812;48.960;9.108;2023-01-16T05:05:57;1.70;;;1.60;;
3085;SDS011;52812;48.960;9.108;2023-01-16T05:08:23;2.17;;;1.50;;
3085;SDS011;52812;48.960;9.108;2023-01-16T05:10:52;2.30;;;1.70;;
3085;SDS011;52812;48.960;9.108;2023-01-16T05:13:18;4.07;;;1.80;;
3085;SDS011;52812;48.960;9.108;2023-01-16T05:15:45;4.00;;;1.80;;
3085;SDS011;52812;48.960;9.108;2023-01-16T05:18:11;3.73;;;1.80;;
3085;SDS011;52812;48.960;9.108;2023-01-16T05:20:38;3.00;;;1.70;;
3085;SDS011;52812;48.960;9.108;2023-01-16T05:23:04;2.30;;;1.70;;
3085;SDS011;52812;48.960;9.108;2023-01-16T05:25:30;4.80;;;1.60;;
3085;SDS011;52812;48.960;9.108;2023-01-16T05:27:56;4.00;;;1.77;;
3085;SDS011;52812;48.960;9.108;2023-01-16T05:30:22;1.77;;;1.40;;
3085;SDS011;52812;48.960;9.108;2023-01-16T05:32:48;3.13;;;1.60;;
3085;SDS011;52812;48.960;9.108;2023-01-16T05:35:14;2.80;;;1.70;;
3085;SDS011;52812;48.960;9.108;2023-01-16T05:37:41;2.27;;;1.90;;
3085;SDS011;52812;48.960;9.108;2023-01-16T05:40:07;2.40;;;1.90;;
3085;SDS011;52812;48.960;9.108;2023-01-16T05:42:34;3.20;;;2.00;;
3085;SDS011;52812;48.960;9.108;2023-01-16T05:44:59;3.33;;;2.10;;
3085;SDS011;52812;48.960;9.108;2023-01-16T05:47:25;5.33;;;2.40;;
3085;SDS011;52812;48.960;9.108;2023-01-16T05:49:51;6.73;;;2.53;;
3085;SDS011;52812;48.960;9.108;2023-01-16T05:52:16;3.00;;;2.43;;
3085;SDS011;52812;48.960;9.108;2023-01-16T05:54:42;2.97;;;2.30;;
3085;SDS011;52812;48.960;9.108;2023-01-16T05:57:07;4.50;;;2.10;;
3085;SDS011;52812;48.960;9.108;2023-01-16T05:59:33;3.50;;;2.33;;
3085;SDS011;52812;48.960;9.108;2023-01-16T06:01:59;3.90;;;1.90;;
3085;SDS011;52812;48.960;9.108;2023-01-16T06:04:24;4.57;;;2.40;;
3085;SDS011;52812;48.960;9.108;2023-01-16T06:06:50;3.37;;;1.93;;
3085;SDS011;52812;48.960;9.108;2023-01-16T06:09:16;3.40;;;1.90;;
3085;SDS011;52812;48.960;9.108;2023-01-16T06:11:41;4.33;;;1.90;;
3085;SDS011;52812;48.960;9.108;2023-01-16T06:14:07;4.20;;;1.73;;
3085;SDS011;52812;48.960;9.108;2023-01-16T06:16:33;3.43;;;1.90;;
3085;SDS011;52812;48.960;9.108;2023-01-16T06:18:59;3.60;;;1.70;;
3085;SDS011;52812;48.960;9.108;2023-01-16T06:21:26;1.73;;;1.60;;
3085;SDS011;52812;48.960;9.108;2023-01-16T06:23:52;3.80;;;2.17;;
3085;SDS011;52812;48.960;9.108;2023-01-16T06:26:17;3.00;;;1.90;;
3085;SDS011;52812;48.960;9.108;2023-01-16T06:28:44;2.00;;;1.60;;
3085;SDS011;52812;48.960;9.108;2023-01-16T06:31:10;3.33;;;1.83;;
3085;SDS011;52812;48.960;9.108;2023-01-16T06:33:36;2.70;;;1.67;;
3085;SDS011;52812;48.960;9.108;2023-01-16T06:36:02;2.03;;;1.83;;
3085;SDS011;52812;48.960;9.108;2023-01-16T06:38:28;2.77;;;1.80;;
3085;SDS011;52812;48.960;9.108;2023-01-16T06:40:54;2.40;;;1.77;;
3085;SDS011;52812;48.960;9.108;2023-01-16T06:43:27;2.70;;;1.93;;
3085;SDS011;52812;48.960;9.108;2023-01-16T06:45:53;2.77;;;1.97;;
3085;SDS011;52812;48.960;9.108;2023-01-16T06:48:19;3.93;;;2.00;;
3085;SDS011;52812;48.960;9.108;2023-01-16T06:50:46;2.20;;;1.80;;
3085;SDS011;52812;48.960;9.108;2023-01-16T06:53:12;2.00;;;1.80;;
3085;SDS011;52812;48.960;9.108;2023-01-16T06:55:39;2.90;;;2.00;;
3085;SDS011;52812;48.960;9.108;2023-01-16T06:58:05;1.90;;;1.70;;
3085;SDS011;52812;48.960;9.108;2023-01-16T07:00:32;2.70;;;1.70;;
3085;SDS011;52812;48.960;9.108;2023-01-16T07:02:58;2.00;;;1.73;;
3085;SDS011;52812;48.960;9.108;2023-01-16T07:05:25;4.00;;;2.23;;
3085;SDS011;52812;48.960;9.108;2023-01-16T07:07:52;3.57;;;2.07;;
3085;SDS011;52812;48.960;9.108;2023-01-16T07:10:17;2.23;;;1.90;;
3085;SDS011;52812;48.960;9.108;2023-01-16T07:12:47;5.07;;;1.73;;
3085;SDS011;52812;48.960;9.108;2023-01-16T07:15:13;2.80;;;1.77;;
3085;SDS011;52812;48.960;9.108;2023-01-16T07:17:57;1.77;;;1.63;;
3085;SDS011;52812;48.960;9.108;2023-01-16T07:20:41;2.00;;;1.80;;
3085;SDS011;52812;48.960;9.108;2023-01-16T07:23:33;4.97;;;2.07;;
3085;SDS011;52812;48.960;9.108;2023-01-16T07:26:01;2.00;;;1.80;;
3085;SDS011;52812;48.960;9.108;2023-01-16T07:28:29;2.50;;;1.70;;
3085;SDS011;52812;48.960;9.108;2023-01-16T07:30:56;4.47;;;2.17;;
3085;SDS011;52812;48.960;9.108;2023-01-16T07:33:22;4.60;;;2.10;;
3085;SDS011;52812;48.960;9.108;2023-01-16T07:35:48;2.87;;;1.90;;
3085;SDS011;52812;48.960;9.108;2023-01-16T07:38:14;5.07;;;1.87;;
3085;SDS011;52812;48.960;9.108;2023-01-16T07:40:40;3.40;;;2.03;;
3085;SDS011;52812;48.960;9.108;2023-01-16T07:43:06;3.60;;;1.87;;
3085;SDS011;52812;48.960;9.108;2023-01-16T07:45:32;2.03;;;1.80;;
3085;SDS011;52812;48.960;9.108;2023-01-16T07:47:57;2.83;;;2.00;;
3085;SDS011;52812;48.960;9.108;2023-01-16T07:50:25;4.77;;;2.00;;
3085;SDS011;52812;48.960;9.108;2023-01-16T07:52:51;2.30;;;2.00;;
3085;SDS011;52812;48.960;9.108;2023-01-16T07:55:17;2.33;;;1.97;;
3085;SDS011;52812;48.960;9.108;2023-01-16T07:57:43;2.53;;;2.33;;
3085;SDS011;52812;48.960;9.108;2023-01-16T08:00:09;1.80;;;1.70;;
3085;SDS011;52812;48.960;9.108;2023-01-16T08:02:36;4.33;;;2.20;;
3085;SDS011;52812;48.960;9.108;2023-01-16T08:05:03;2.63;;;2.07;;
3085;SDS011;52812;48.960;9.108;2023-01-16T08:07:29;2.17;;;1.90;;
3085;SDS011;52812;48.960;9.108;2023-01-16T08:09:54;3.27;;;2.20;;
3085;SDS011;52812;48.960;9.108;2023-01-16T08:12:20;5.20;;;2.33;;
3085;SDS011;52812;48.960;9.108;2023-01-16T08:14:46;3.23;;;2.33;;
3085;SDS011;52812;48.960;9.108;2023-01-16T08:17:12;4.00;;;2.63;;
3085;SDS011;52812;48.960;9.108;2023-01-16T08:19:37;3.40;;;1.90;;
3085;SDS011;52812;48.960;9.108;2023-01-16T08:22:03;4.40;;;2.10;;
3085;SDS011;52812;48.960;9.108;2023-01-16T08:24:29;4.67;;;2.30;;
3085;SDS011;52812;48.960;9.108;2023-01-16T08:26:55;3.40;;;2.37;;
3085;SDS011;52812;48.960;9.108;2023-01-16T08:29:21;7.80;;;2.30;;
3085;SDS011;52812;48.960;9.108;2023-01-16T08:31:47;2.57;;;2.33;;
3085;SDS011;52812;48.960;9.108;2023-01-16T08:34:13;2.40;;;2.20;;
3085;SDS011;52812;48.960;9.108;2023-01-16T08:36:39;2.67;;;1.93;;
3085;SDS011;52812;48.960;9.108;2023-01-16T08:39:05;3.30;;;2.20;;
3085;SDS011;52812;48.960;9.108;2023-01-16T08:41:31;9.23;;;2.50;;
3085;SDS011;52812;48.960;9.108;2023-01-16T08:44:15;3.10;;;2.10;;
3085;SDS011;52812;48.960;9.108;2023-01-16T08:47:00;2.23;;;1.97;;
3085;SDS011;52812;48.960;9.108;2023-01-16T08:49:51;2.33;;;2.13;;
3085;SDS011;52812;48.960;9.108;2023-01-16T08:52:35;4.13;;;2.00;;
3085;SDS011;52812;48.960;9.108;2023-01-16T08:55:02;4.10;;;2.37;;
3085;SDS011;52812;48.960;9.108;2023-01-16T08:57:28;3.20;;;2.37;;
3085;SDS011;52812;48.960;9.108;2023-01-16T08:59:54;3.77;;;2.23;;
3085;SDS011;52812;48.960;9.108;2023-01-16T09:02:21;2.77;;;2.07;;
3085;SDS011;52812;48.960;9.108;2023-01-16T09:04:47;3.63;;;1.80;;
3085;SDS011;52812;48.960;9.108;2023-01-16T09:07:14;3.63;;;2.03;;
3085;SDS011;52812;48.960;9.108;2023-01-16T09:09:40;2.40;;;2.20;;
3085;SDS011;52812;48.960;9.108;2023-01-16T09:12:08;2.73;;;2.00;;
3085;SDS011;52812;48.960;9.108;2023-01-16T09:14:54;3.10;;;2.07;;
3085;SDS011;52812;48.960;9.108;2023-01-16T09:17:22;2.23;;;1.67;;
3085;SDS011;52812;48.960;9.108;2023-01-16T09:19:49;2.40;;;1.80;;
3085;SDS011;52812;48.960;9.108;2023-01-16T09:22:16;4.40;;;1.93;;
3085;SDS011;52812;48.960;9.108;2023-01-16T09:24:41;5.30;;;2.00;;
3085;SDS011;52812;48.960;9.108;2023-01-16T09:27:07;2.40;;;1.80;;
3085;SDS011;52812;48.960;9.108;2023-01-16T09:29:33;2.83;;;1.60;;
3085;SDS011;52812;48.960;9.108;2023-01-16T09:31:58;2.00;;;1.60;;
3085;SDS011;52812;48.960;9.108;2023-01-16T09:34:26;2.23;;;1.60;;
3085;SDS011;52812;48.960;9.108;2023-01-16T09:36:51;2.03;;;1.47;;
3085;SDS011;52812;48.960;9.108;2023-01-16T09:39:18;3.23;;;1.50;;
3085;SDS011;52812;48.960;9.108;2023-01-16T09:41:50;1.50;;;1.40;;
3085;SDS011;52812;48.960;9.108;2023-01-16T09:44:42;1.97;;;1.50;;
3085;SDS011;52812;48.960;9.108;2023-01-16T09:47:10;1.63;;;1.50;;
3085;SDS011;52812;48.960;9.108;2023-01-16T09:49:53;1.97;;;1.20;;
3085;SDS011;52812;48.960;9.108;2023-01-16T09:52:25;1.53;;;1.30;;
3085;SDS011;52812;48.960;9.108;2023-01-16T09:55:18;1.90;;;1.07;;
3085;SDS011;52812;48.960;9.108;2023-01-16T09:58:09;3.57;;;1.30;;
3085;SDS011;52812;48.960;9.108;2023-01-16T10:00:59;1.40;;;1.30;;
3085;SDS011;52812;48.960;9.108;2023-01-16T10:03:25;2.40;;;1.30;;
3085;SDS011;52812;48.960;9.108;2023-01-16T10:06:03;9.00;;;1.40;;
3085;SDS011;52812;48.960;9.108;2023-01-16T10:11:57;2.73;;;1.10;;
3085;SDS011;52812;48.960;9.108;2023-01-16T10:25:25;1.53;;;1.30;;
3085;SDS011;52812;48.960;9.108;2023-01-16T10:31:10;1.80;;;1.20;;
3085;SDS011;52812;48.960;9.108;2023-01-16T10:33:45;1.50;;;1.23;;
3085;SDS011;52812;48.960;9.108;2023-01-16T10:36:22;1.43;;;1.33;;
3085;SDS011;52812;48.960;9.108;2023-01-16T10:38:54;2.80;;;1.43;;
3085;SDS011;52812;48.960;9.108;2023-01-16T10:44:18;1.47;;;1.20;;
3085;SDS011;52812;48.960;9.108;2023-01-16T10:47:13;2.50;;;1.30;;
3085;SDS011;52812;48.960;9.108;2023-01-16T10:49:59;1.30;;;1.20;;
3085;SDS011;52812;48.960;9.108;2023-01-16T10:52:24;1.60;;;1.27;;
3085;SDS011;52812;48.960;9.108;2023-01-16T10:54:52;1.57;;;1.30;;
3085;SDS011;52812;48.960;9.108;2023-01-16T10:57:20;2.40;;;1.20;;
3085;SDS011;52812;48.960;9.108;2023-01-16T10:59:46;2.90;;;1.27;;
3085;SDS011;52812;48.960;9.108;2023-01-16T11:02:16;1.10;;;1.00;;
3085;SDS011;52812;48.960;9.108;2023-01-16T11:04:48;1.20;;;1.10;;
3085;SDS011;52812;48.960;9.108;2023-01-16T11:07:15;1.20;;;1.10;;
3085;SDS011;52812;48.960;9.108;2023-01-16T11:09:43;1.10;;;1.00;;
3085;SDS011;52812;48.960;9.108;2023-01-16T11:12:31;1.53;;;1.10;;
3085;SDS011;52812;48.960;9.108;2023-01-16T11:15:24;3.87;;;1.17;;
3085;SDS011;52812;48.960;9.108;2023-01-16T11:18:28;1.30;;;1.20;;
3085;SDS011;52812;48.960;9.108;2023-01-16T11:21:01;1.40;;;1.30;;
3085;SDS011;52812;48.960;9.108;2023-01-16T11:23:41;1.10;;;1.00;;
3085;SDS011;52812;48.960;9.108;2023-01-16T11:26:09;1.30;;;1.20;;
3085;SDS011;52812;48.960;9.108;2023-01-16T11:28:36;1.27;;;1.17;;
3085;SDS011;52812;48.960;9.108;2023-01-16T11:31:03;1.43;;;1.30;;
3085;SDS011;52812;48.960;9.108;2023-01-16T11:33:40;1.27;;;1.17;;
3085;SDS011;52812;48.960;9.108;2023-01-16T11:36:19;1.40;;;1.00;;
3085;SDS011;52812;48.960;9.108;2023-01-16T11:38:48;1.37;;;1.20;;
3085;SDS011;52812;48.960;9.108;2023-01-16T11:41:18;1.27;;;1.17;;
3085;SDS011;52812;48.960;9.108;2023-01-16T11:46:58;1.10;;;1.00;;
3085;SDS011;52812;48.960;9.108;2023-01-16T11:49:26;1.00;;;1.00;;
3085;SDS011;52812;48.960;9.108;2023-01-16T11:51:58;1.40;;;1.03;;
3085;SDS011;52812;48.960;9.108;2023-01-16T11:54:28;1.27;;;1.10;;
3085;SDS011;52812;48.960;9.108;2023-01-16T12:10:51;1.00;;;0.90;;
3085;SDS011;52812;48.960;9.108;2023-01-16T12:13:44;1.50;;;1.20;;
3085;SDS011;52812;48.960;9.108;2023-01-16T12:33:34;1.17;;;1.00;;
3085;SDS011;52812;48.960;9.108;2023-01-16T12:36:36;1.83;;;1.00;;
3085;SDS011;52812;48.960;9.108;2023-01-16T12:50:32;1.20;;;1.10;;
3085;SDS011;52812;48.960;9.108;2023-01-16T12:58:27;1.97;;;1.10;;
3085;SDS011;52812;48.960;9.108;2023-01-16T13:03:39;1.10;;;1.00;;
3085;SDS011;52812;48.960;9.108;2023-01-16T13:06:11;1.43;;;1.00;;
3085;SDS011;52812;48.960;9.108;2023-01-16T13:11:25;1.00;;;0.90;;
3085;SDS011;52812;48.960;9.108;2023-01-16T13:14:15;0.93;;;0.90;;
3085;SDS011;52812;48.960;9.108;2023-01-16T13:19:20;1.20;;;0.80;;
3085;SDS011;52812;48.960;9.108;2023-01-16T13:21:57;1.20;;;1.00;;
3085;SDS011;52812;48.960;9.108;2023-01-16T13:24:36;1.10;;;1.00;;
3085;SDS011;52812;48.960;9.108;2023-01-16T13:27:05;1.00;;;0.90;;
3085;SDS011;52812;48.960;9.108;2023-01-16T13:29:53;1.43;;;0.90;;
3085;SDS011;52812;48.960;9.108;2023-01-16T13:32:30;1.43;;;0.80;;
3085;SDS011;52812;48.960;9.108;2023-01-16T13:35:17;1.20;;;1.00;;
3085;SDS011;52812;48.960;9.108;2023-01-16T13:41:03;1.30;;;1.10;;
3085;SDS011;52812;48.960;9.108;2023-01-16T13:43:37;0.80;;;0.80;;
3085;SDS011;52812;48.960;9.108;2023-01-16T13:46:29;2.20;;;0.80;;
3085;SDS011;52812;48.960;9.108;2023-01-16T13:48:57;1.00;;;0.90;;
3085;SDS011;52812;48.960;9.108;2023-01-16T13:51:26;0.80;;;0.80;;
3085;SDS011;52812;48.960;9.108;2023-01-16T13:53:56;0.90;;;0.90;;
3085;SDS011;52812;48.960;9.108;2023-01-16T13:56:25;1.57;;;0.80;;
3085;SDS011;52812;48.960;9.108;2023-01-16T14:07:02;1.17;;;0.90;;
3085;SDS011;52812;48.960;9.108;2023-01-16T14:12:35;0.83;;;0.83;;
3085;SDS011;52812;48.960;9.108;2023-01-16T14:15:29;1.00;;;0.80;;
3085;SDS011;52812;48.960;9.108;2023-01-16T14:21:24;1.17;;;1.00;;
3085;SDS011;52812;48.960;9.108;2023-01-16T14:24:13;1.10;;;1.00;;
3085;SDS011;52812;48.960;9.108;2023-01-16T14:26:49;1.13;;;1.00;;
3085;SDS011;52812;48.960;9.108;2023-01-16T14:29:22;0.90;;;0.90;;
3085;SDS011;52812;48.960;9.108;2023-01-16T14:34:36;0.93;;;0.87;;
3085;SDS011;52812;48.960;9.108;2023-01-16T14:37:15;0.90;;;0.90;;
3085;SDS011;52812;48.960;9.108;2023-01-16T14:42:38;1.10;;;0.90;;
3085;SDS011;52812;48.960;9.108;2023-01-16T14:51:11;1.00;;;0.90;;
3085;SDS011;52812;48.960;9.108;2023-01-16T14:57:32;1.00;;;0.90;;
3085;SDS011;52812;48.960;9.108;2023-01-16T15:02:19;1.30;;;0.90;;
3085;SDS011;52812;48.960;9.108;2023-01-16T15:05:06;0.90;;;0.90;;
3085;SDS011;52812;48.960;9.108;2023-01-16T15:08:21;1.17;;;1.00;;
3085;SDS011;52812;48.960;9.108;2023-01-16T15:10:30;1.93;;;1.03;;
3085;SDS011;52812;48.960;9.108;2023-01-16T15:15:54;1.33;;;0.93;;
3085;SDS011;52812;48.960;9.108;2023-01-16T15:18:27;0.87;;;0.87;;
3085;SDS011;52812;48.960;9.108;2023-01-16T15:21:14;0.97;;;0.80;;
3085;SDS011;52812;48.960;9.108;2023-01-16T15:24:00;0.80;;;0.80;;
3085;SDS011;52812;48.960;9.108;2023-01-16T15:32:10;0.93;;;0.90;;
3085;SDS011;52812;48.960;9.108;2023-01-16T15:34:45;1.10;;;1.00;;
3085;SDS011;52812;48.960;9.108;2023-01-16T15:37:19;0.97;;;0.90;;
3085;SDS011;52812;48.960;9.108;2023-01-16T15:39:47;1.10;;;1.00;;
3085;SDS011;52812;48.960;9.108;2023-01-16T15:45:23;1.30;;;1.20;;
3085;SDS011;52812;48.960;9.108;2023-01-16T15:48:13;1.20;;;1.10;;
3085;SDS011;52812;48.960;9.108;2023-01-16T15:50:58;1.23;;;0.93;;
3085;SDS011;52812;48.960;9.108;2023-01-16T15:53:34;1.10;;;1.00;;
3085;SDS011;52812;48.960;9.108;2023-01-16T15:56:08;1.10;;;0.97;;
3085;SDS011;52812;48.960;9.108;2023-01-16T15:58:46;1.20;;;1.10;;
3085;SDS011;52812;48.960;9.108;2023-01-16T16:01:14;1.43;;;1.10;;
3085;SDS011;52812;48.960;9.108;2023-01-16T16:03:46;2.00;;;1.10;;
3085;SDS011;52812;48.960;9.108;2023-01-16T16:06:15;1.30;;;1.00;;
3085;SDS011;52812;48.960;9.108;2023-01-16T16:08:46;1.10;;;1.00;;
3085;SDS011;52812;48.960;9.108;2023-01-16T16:11:17;1.10;;;1.00;;
3085;SDS011;52812;48.960;9.108;2023-01-16T16:14:06;1.10;;;1.00;;
3085;SDS011;52812;48.960;9.108;2023-01-16T16:17:02;1.13;;;1.00;;
3085;SDS011;52812;48.960;9.108;2023-01-16T16:19:47;1.20;;;1.10;;
3085;SDS011;52812;48.960;9.108;2023-01-16T16:22:15;1.20;;;1.00;;
3085;SDS011;52812;48.960;9.108;2023-01-16T16:25:08;1.20;;;1.10;;
3085;SDS011;52812;48.960;9.108;2023-01-16T16:27:42;1.33;;;1.23;;
3085;SDS011;52812;48.960;9.108;2023-01-16T16:30:13;1.20;;;1.10;;
3085;SDS011;52812;48.960;9.108;2023-01-16T16:32:51;1.30;;;1.07;;
3085;SDS011;52812;48.960;9.108;2023-01-16T16:35:24;1.50;;;1.00;;
3085;SDS011;52812;48.960;9.108;2023-01-16T16:37:53;1.23;;;1.10;;
3085;SDS011;52812;48.960;9.108;2023-01-16T16:40:19;1.30;;;1.20;;
3085;SDS011;52812;48.960;9.108;2023-01-16T16:42:50;1.40;;;1.30;;
3085;SDS011;52812;48.960;9.108;2023-01-16T16:47:46;1.27;;;1.17;;
3085;SDS011;52812;48.960;9.108;2023-01-16T16:55:36;1.37;;;1.20;;
3085;SDS011;52812;48.960;9.108;2023-01-16T16:58:15;1.50;;;1.40;;
3085;SDS011;52812;48.960;9.108;2023-01-16T17:00:44;1.50;;;1.40;;
3085;SDS011;52812;48.960;9.108;2023-01-16T17:03:20;1.40;;;1.30;;
3085;SDS011;52812;48.960;9.108;2023-01-16T17:05:47;1.50;;;1.40;;
3085;SDS011;52812;48.960;9.108;2023-01-16T17:08:20;1.30;;;1.20;;
3085;SDS011;52812;48.960;9.108;2023-01-16T17:10:48;1.50;;;1.40;;
3085;SDS011;52812;48.960;9.108;2023-01-16T17:13:16;1.57;;;1.47;;
3085;SDS011;52812;48.960;9.108;2023-01-16T17:15:43;1.53;;;1.43;;
3085;SDS011;52812;48.960;9.108;2023-01-16T17:18:10;1.40;;;1.30;;
3085;SDS011;52812;48.960;9.108;2023-01-16T17:20:36;1.57;;;1.33;;
3085;SDS011;52812;48.960;9.108;2023-01-16T17:23:03;1.53;;;1.43;;
3085;SDS011;52812;48.960;9.108;2023-01-16T17:25:37;1.60;;;1.50;;
3085;SDS011;52812;48.960;9.108;2023-01-16T17:28:03;1.60;;;1.50;;
3085;SDS011;52812;48.960;9.108;2023-01-16T17:30:29;2.50;;;1.70;;
3085;SDS011;52812;48.960;9.108;2023-01-16T17:33:02;1.70;;;1.60;;
3085;SDS011;52812;48.960;9.108;2023-01-16T17:35:34;1.70;;;1.60;;
3085;SDS011;52812;48.960;9.108;2023-01-16T17:38:01;1.53;;;1.40;;
3085;SDS011;52812;48.960;9.108;2023-01-16T17:40:29;1.57;;;1.40;;
3085;SDS011;52812;48.960;9.108;2023-01-16T17:42:55;1.60;;;1.50;;
3085;SDS011;52812;48.960;9.108;2023-01-16T17:45:40;1.80;;;1.50;;
3085;SDS011;52812;48.960;9.108;2023-01-16T17:48:24;1.77;;;1.50;;
3085;SDS011;52812;48.960;9.108;2023-01-16T17:50:51;1.97;;;1.60;;
3085;SDS011;52812;48.960;9.108;2023-01-16T17:53:19;1.30;;;1.20;;
3085;SDS011;52812;48.960;9.108;2023-01-16T17:55:47;1.60;;;1.50;;
3085;SDS011;52812;48.960;9.108;2023-01-16T17:58:28;3.73;;;1.70;;
3085;SDS011;52812;48.960;9.108;2023-01-16T18:01:12;1.97;;;1.60;;
3085;SDS011;52812;48.960;9.108;2023-01-16T18:03:42;1.73;;;1.53;;
3085;SDS011;52812;48.960;9.108;2023-01-16T18:06:12;1.70;;;1.60;;
3085;SDS011;52812;48.960;9.108;2023-01-16T18:08:39;2.00;;;1.60;;
3085;SDS011;52812;48.960;9.108;2023-01-16T18:11:05;1.60;;;1.50;;
3085;SDS011;52812;48.960;9.108;2023-01-16T18:13:49;1.60;;;1.50;;
3085;SDS011;52812;48.960;9.108;2023-01-16T18:16:35;1.87;;;1.40;;
3085;SDS011;52812;48.960;9.108;2023-01-16T18:19:19;1.30;;;1.20;;